Latest Coastal Weather Observations for Arlington Reef

IDQ60701

Issued at 6:02 pm EST Wednesday 8 February 2023 (issued every 10 minutes, with the page automatically refreshed every 10 minutes)

About coastal observations | Map of coastal stations | Coastal observations for QLD | Marine services | Other Formats
Station Details ID: 200879 Name: ARLINGTON REEF Lat: -16.72 Lon: 146.11 Height: 0.0 m
Data from the previous 72 hours. | See also: Recent months at Arlington Reef
Date/Time
EST
Wind Sea
Height
m
Swell Vis
km
Cloud Weather Temp
°C
Press
MSL
hPa
Rain since
9am
mm
Dir  Spd
kts
Gust
kts
Height
m
Period
s
Dir
08/06:00pm S 20 24 - - - - - - - - 1000.9 -
08/05:30pm S 21 25 - - - - - - - - 1001.0 -
08/05:00pm S 21 26 - - - - - - - - 1001.0 -
08/04:30pm S 20 24 - - - - - - - - 1001.3 -
08/04:00pm S 20 23 - - - - - - - - 1001.3 -
08/03:30pm SSE 20 25 - - - - - - - - 1001.4 -
08/03:00pm S 20 24 - - - - - - - - 1001.5 -
08/02:30pm S 19 23 - - - - - - - - 1001.7 -
08/02:00pm S 22 25 - - - - - - - - 1002.0 -
08/01:30pm S 21 25 - - - - - - - - 1002.1 -
08/01:00pm S 22 25 - - - - - - - - 1002.4 -
08/12:30pm SSE 20 23 - - - - - - - - 1002.9 -
08/12:00pm S 20 23 - - - - - - - - 1003.2 -
08/11:30am SSE 21 24 - - - - - - - - 1003.3 -
08/11:00am S 19 21 - - - - - - - - 1003.8 -
08/10:30am S 19 22 - - - - - - - - 1003.8 -
08/10:00am S 19 21 - - - - - - - - 1003.9 -
08/09:30am S 18 22 - - - - - - - - 1004.3 -
08/09:00am SSE 18 21 - - - - - - - - 1004.6 -
08/08:30am SSE 19 23 - - - - - - - - 1004.5 -
08/08:00am SSE 19 23 - - - - - - - - 1004.7 -
08/07:30am S 18 21 - - - - - - - - 1004.3 -
08/07:00am SSE 18 21 - - - - - - - - 1004.2 -
08/06:30am SSE 20 25 - - - - - - - - 1003.6 -
08/06:00am SSE 18 22 - - - - - - - - 1003.4 -
08/05:30am SSE 24 28 - - - - - - - - 1002.9 -
08/05:00am SSE 18 22 - - - - - - - - 1002.8 -
08/04:30am SSE 14 15 - - - - - - - - 1002.9 -
08/04:00am SSE 22 28 - - - - - - - - 1002.9 -
08/03:30am S 17 20 - - - - - - - - 1002.9 -
08/03:00am S 18 21 - - - - - - - - 1003.1 -
08/02:30am SSE 19 23 - - - - - - - - 1003.6 -
08/02:00am SE 16 22 - - - - - - - - 1003.9 -
08/01:30am SSE 18 21 - - - - - - - - 1003.9 -
08/01:00am SSE 18 21 - - - - - - - - 1004.5 -
08/12:30am SSE 17 21 - - - - - - - - 1005.0 -
08/12:00am SSE 18 21 - - - - - - - - 1005.1 -
 
Date/Time
EST
Wind Sea
Height
m
Swell Vis
km
Cloud Weather Temp
°C
Press
MSL
hPa
Rain since
9am
mm
Dir  Spd
kts
Gust
kts
Height
m
Period
s
Dir
07/11:30pm SSE 17 20 - - - - - - - - 1005.4 -
07/11:00pm SSE 18 21 - - - - - - - - 1005.6 -
07/10:30pm SSE 20 24 - - - - - - - - 1005.9 -
07/10:00pm SSE 22 26 - - - - - - - - 1005.8 -
07/09:30pm SSE 21 27 - - - - - - - - 1005.5 -
07/09:00pm SSE 23 26 - - - - - - - - 1004.9 -
07/08:30pm SSE 20 25 - - - - - - - - 1004.8 -
07/08:00pm SSE 19 22 - - - - - - - - 1004.7 -
07/07:30pm SSE 21 24 - - - - - - - - 1004.4 -
07/07:00pm SSE 18 22 - - - - - - - - 1004.4 -
07/06:30pm S 18 20 - - - - - - - - 1004.2 -
07/06:00pm S 18 21 - - - - - - - - 1003.9 -
07/05:30pm SSE 14 17 - - - - - - - - 1003.9 -
07/05:00pm S 16 18 - - - - - - - - 1003.8 -
07/04:30pm SSE 14 17 - - - - - - - - 1003.9 -
07/04:00pm S 13 16 - - - - - - - - 1004.2 -
07/03:30pm S 15 17 - - - - - - - - 1004.2 -
07/03:00pm SSE 13 15 - - - - - - - - 1004.5 -
07/02:30pm SSE 15 17 - - - - - - - - 1004.9 -
07/02:00pm SSE 16 18 - - - - - - - - 1004.9 -
07/01:30pm SSE 15 17 - - - - - - - - 1005.1 -
07/01:00pm SSE 15 17 - - - - - - - - 1005.3 -
07/12:30pm SSE 18 21 - - - - - - - - 1005.7 -
07/12:00pm SSE 15 19 - - - - - - - - 1006.0 -
07/11:30am S 13 15 - - - - - - - - 1006.4 -
07/11:00am S 14 17 - - - - - - - - 1006.5 -
07/10:30am SSE 15 17 - - - - - - - - 1006.9 -
07/10:00am SSE 14 16 - - - - - - - - 1007.0 -
07/09:30am SSE 15 17 - - - - - - - - 1007.3 -
07/09:00am SSE 14 16 - - - - - - - - 1007.1 -
07/08:30am SSE 11 16 - - - - - - - - 1007.0 -
07/08:00am SSE 12 14 - - - - - - - - 1006.9 -
07/07:30am SSE 13 15 - - - - - - - - 1006.8 -
07/07:00am SSE 11 12 - - - - - - - - 1006.5 -
07/06:30am SE 12 13 - - - - - - - - 1006.3 -
07/06:00am SE 11 13 - - - - - - - - 1005.9 -
07/05:30am SE 13 14 - - - - - - - - 1005.9 -
07/05:00am SE 12 15 - - - - - - - - 1005.9 -
07/04:30am SE 13 16 - - - - - - - - 1005.8 -
07/04:00am SE 15 17 - - - - - - - - 1005.7 -
07/03:30am SE 15 17 - - - - - - - - 1005.7 -
07/03:00am SE 13 15 - - - - - - - - 1005.8 -
07/02:30am SE 15 17 - - - - - - - - 1006.2 -
07/02:00am SE 16 19 - - - - - - - - 1006.1 -
07/01:30am SE 18 21 - - - - - - - - 1006.3 -
07/01:00am ESE 16 18 - - - - - - - - 1006.7 -
07/12:30am ESE 18 21 - - - - - - - - 1007.0 -
07/12:00am ESE 17 20 - - - - - - - - 1007.3 -
 
Date/Time
EST
Wind Sea
Height
m
Swell Vis
km
Cloud Weather Temp
°C
Press
MSL
hPa
Rain since
9am
mm
Dir  Spd
kts
Gust
kts
Height
m
Period
s
Dir
06/11:30pm ESE 18 21 - - - - - - - - 1007.5 -
06/11:00pm ESE 17 20 - - - - - - - - 1007.6 -
06/10:30pm ESE 17 20 - - - - - - - - 1007.8 -
06/10:00pm ESE 17 19 - - - - - - - - 1007.8 -
06/09:30pm ESE 14 20 - - - - - - - - 1007.7 -
06/09:00pm ESE 14 16 - - - - - - - - 1007.3 -
06/08:30pm ESE 14 17 - - - - - - - - 1007.3 -
06/08:00pm SE 13 15 - - - - - - - - 1007.2 -
06/07:30pm SE 12 15 - - - - - - - - 1006.9 -
06/07:00pm SE 12 15 - - - - - - - - 1006.8 -
06/06:30pm SE 13 14 - - - - - - - - 1006.4 -
06/06:00pm SE 12 15 - - - - - - - - 1006.2 -
06/05:30pm SE 13 15 - - - - - - - - 1005.9 -
06/05:00pm SE 13 16 - - - - - - - - 1006.0 -
06/04:30pm SE 13 15 - - - - - - - - 1006.0 -
06/04:00pm SE 12 15 - - - - - - - - 1006.2 -
06/03:30pm SE 12 13 - - - - - - - - 1006.3 -
06/03:00pm SE 13 14 - - - - - - - - 1006.6 -
06/02:30pm SE 12 14 - - - - - - - - 1006.6 -
06/02:00pm SE 12 14 - - - - - - - - 1006.7 -
06/01:30pm SE 11 13 - - - - - - - - 1006.7 -
06/01:00pm SE 9 11 - - - - - - - - 1007.0 -
06/12:30pm SE 11 12 - - - - - - - - 1007.6 -
06/12:00pm SE 10 12 - - - - - - - - 1008.2 -
06/11:30am SE 11 13 - - - - - - - - 1008.5 -
06/11:00am ESE 12 15 - - - - - - - - 1008.7 -
06/10:30am SE 13 16 - - - - - - - - 1008.7 -
06/10:00am SE 12 14 - - - - - - - - 1008.7 -
06/09:30am SE 12 14 - - - - - - - - 1009.0 -
06/09:00am SSE 13 15 - - - - - - - - 1008.9 -
06/08:30am SE 15 17 - - - - - - - - 1008.9 -
06/08:00am SE 15 17 - - - - - - - - 1008.5 -
06/07:30am SE 12 14 - - - - - - - - 1008.2 -
06/07:00am SE 15 20 - - - - - - - - 1007.8 -
06/06:30am SE 14 16 - - - - - - - - 1007.5 -
06/06:00am SE 14 16 - - - - - - - - 1007.2 -
06/05:30am SE 13 15 - - - - - - - - 1007.0 -
06/05:00am SE 11 14 - - - - - - - - 1006.6 -
06/04:30am ESE 9 11 - - - - - - - - 1006.4 -
06/04:00am ESE 9 11 - - - - - - - - 1006.2 -
06/03:30am ESE 9 10 - - - - - - - - 1006.1 -
06/03:00am ESE 9 10 - - - - - - - - 1006.2 -
06/02:30am ESE 8 9 - - - - - - - - 1006.2 -
06/02:00am E 7 9 - - - - - - - - 1006.2 -
06/01:30am ENE 5 6 - - - - - - - - 1006.5 -
06/01:00am ENE 7 8 - - - - - - - - 1006.9 -
06/12:30am E 8 9 - - - - - - - - 1007.1 -
06/12:00am E 9 11 - - - - - - - - 1007.4 -
 
Date/Time
EST
Wind Sea
Height
m
Swell Vis
km
Cloud Weather Temp
°C
Press
MSL
hPa
Rain since
9am
mm
Dir  Spd
kts
Gust
kts
Height
m
Period
s
Dir
05/11:30pm ESE 11 17 - - - - - - - - 1007.2 -
05/11:00pm ESE 13 16 - - - - - - - - 1007.5 -
05/10:30pm E 9 13 - - - - - - - - 1008.1 -
05/10:00pm ESE 12 14 - - - - - - - - 1007.6 -
05/09:30pm E 11 13 - - - - - - - - 1007.5 -
05/09:00pm ENE 12 14 - - - - - - - - 1007.1 -
05/08:30pm ENE 14 15 - - - - - - - - 1006.7 -
05/08:00pm E 15 18 - - - - - - - - 1006.4 -
05/07:30pm E 14 17 - - - - - - - - 1006.1 -
05/07:00pm ESE 12 14 - - - - - - - - 1006.0 -
05/06:30pm E 16 17 - - - - - - - - 1005.4 -

Other formats

Comma delimited format used in spreadsheet applications
http://www.bom.gov.au/fwo/IDQ60701/IDQ60701.94284.axf

JavaScript Object Notation format (JSON) in row-major order
http://www.bom.gov.au/fwo/IDQ60701/IDQ60701.94284.json

Data quality

Most of these data are generated automatically and are frequently updated. Quality checks on data are not normally performed. It is possible for incorrect values to appear. Refer to information at About Latest Weather Observations and please check the disclaimer before using these data.